Time;durP1;ratioP1;P1;durP2;ratioP2;P2;SDS_P1;SDS_P2;PMS_P1;PMS_P2;Temp;Humidity;BMP_temperature;BMP_pressure;BME280_temperature;BME280_humidity;BME280_pressure;Samples;Min_cycle;Max_cycle;Signal;HPM_P1;HPM_P2
2023/06/12 00:03:49;;;;;;;6.28;4.90;;;;;;;22.37;48.13;101442.25;10377417;28;20088;-71
2023/06/12 00:08:49;;;;;;;6.85;5.35;;;;;;;22.31;48.42;101446.03;10375949;28;20030;-70
2023/06/12 00:13:49;;;;;;;5.75;4.93;;;;;;;22.11;48.79;101435.59;10375603;28;20204;-72
2023/06/12 00:18:51;;;;;;;6.65;4.63;;;;;;;22.04;49.21;101429.47;10376817;28;20069;-71
2023/06/12 00:23:52;;;;;;;9.45;4.90;;;;;;;21.97;48.17;101437.97;10374936;28;20104;-70
2023/06/12 00:28:52;;;;;;;6.57;5.70;;;;;;;21.87;48.46;101445.31;10374717;28;20108;-71
2023/06/12 00:33:53;;;;;;;5.47;4.85;;;;;;;21.80;48.38;101445.53;10374236;28;20074;-70
2023/06/12 00:38:53;;;;;;;4.65;4.25;;;;;;;21.67;48.79;101446.75;10375654;28;20045;-70
2023/06/12 00:43:54;;;;;;;7.70;5.00;;;;;;;21.54;48.78;101448.00;10376570;28;20079;-70
2023/06/12 00:48:54;;;;;;;4.50;4.20;;;;;;;21.48;48.88;101454.53;10375398;28;20022;-71
2023/06/12 00:53:56;;;;;;;6.57;4.90;;;;;;;21.37;50.07;101455.47;10373768;28;20053;-72
2023/06/12 00:58:57;;;;;;;5.82;5.28;;;;;;;21.33;49.57;101457.06;10373716;28;20533;-70
2023/06/12 01:03:57;;;;;;;4.85;4.35;;;;;;;21.23;50.24;101456.94;10373604;28;20037;-70
2023/06/12 01:09:07;;;;;;;6.97;5.25;;;;;;;21.14;48.98;101451.03;10373685;28;20502;-71
2023/06/12 01:14:07;;;;;;;5.20;4.78;;;;;;;21.10;50.26;101460.88;10374037;28;20026;-70
2023/06/12 01:19:08;;;;;;;6.43;4.32;;;;;;;21.07;50.15;101469.66;10374735;28;20394;-70
2023/06/12 01:24:21;;;;;;;4.35;3.88;;;;;;;20.87;50.62;101462.75;10373290;28;20117;-71
2023/06/12 01:29:25;;;;;;;5.03;4.60;;;;;;;20.80;51.43;101477.78;10357635;28;20058;-72
2023/06/12 01:34:28;;;;;;;11.63;4.82;;;;;;;20.75;51.30;101472.22;10394269;28;20074;-71
2023/06/12 01:39:29;;;;;;;8.05;4.63;;;;;;;20.74;50.94;101468.63;10364865;28;20040;-72
2023/06/12 01:44:32;;;;;;;5.40;4.90;;;;;;;20.75;50.33;101466.69;10361910;28;20033;-70
2023/06/12 01:49:32;;;;;;;6.22;4.82;;;;;;;20.73;51.40;101460.59;10356741;28;20415;-71
2023/06/12 01:54:33;;;;;;;5.28;4.47;;;;;;;20.72;51.79;101469.97;10373698;28;20096;-71
2023/06/12 01:59:34;;;;;;;6.60;5.53;;;;;;;20.66;51.43;101474.53;10373214;28;20060;-71
2023/06/12 02:04:34;;;;;;;4.65;4.25;;;;;;;20.55;52.36;101465.31;10373116;28;20042;-70
2023/06/12 02:09:35;;;;;;;6.65;4.90;;;;;;;20.58;51.78;101475.81;10371354;28;20050;-71
2023/06/12 02:14:35;;;;;;;4.20;3.80;;;;;;;20.51;51.87;101475.13;10373475;28;20034;-71
2023/06/12 02:19:36;;;;;;;5.88;5.38;;;;;;;20.33;54.00;101465.16;10374654;28;20030;-71
2023/06/12 02:24:37;;;;;;;6.95;4.70;;;;;;;20.24;54.48;101457.56;10372425;28;20038;-72
2023/06/12 02:29:37;;;;;;;6.63;4.93;;;;;;;20.19;53.49;101453.63;10370984;28;20450;-71
2023/06/12 02:34:38;;;;;;;6.25;4.45;;;;;;;20.11;54.41;101465.06;10374112;28;20042;-71
2023/06/12 02:39:38;;;;;;;4.80;4.40;;;;;;;20.01;54.49;101462.13;10372674;28;20124;-71
2023/06/12 02:44:38;;;;;;;8.18;6.25;;;;;;;19.91;55.70;101451.78;10371211;28;20084;-70
2023/06/12 02:49:44;;;;;;;5.45;4.95;;;;;;;19.84;55.74;101462.06;10371643;28;20410;-72
2023/06/12 02:54:44;;;;;;;6.07;4.95;;;;;;;19.74;56.98;101461.88;10371910;28;20099;-71
2023/06/12 02:59:45;;;;;;;9.23;4.63;;;;;;;19.63;57.45;101460.81;10371169;28;20081;-72
2023/06/12 03:04:45;;;;;;;6.55;5.82;;;;;;;19.59;56.86;101464.28;10378156;28;20539;-70
2023/06/12 03:09:46;;;;;;;12.77;5.80;;;;;;;19.50;59.09;101463.84;10380009;28;20061;-71
2023/06/12 03:14:46;;;;;;;15.35;6.93;;;;;;;19.38;61.40;101476.78;10378387;28;20037;-71
2023/06/12 03:19:47;;;;;;;10.85;6.25;;;;;;;19.37;60.22;101473.19;10377552;28;20034;-69
2023/06/12 03:24:53;;;;;;;12.50;5.50;;;;;;;19.34;61.42;101472.84;10378295;28;20091;-72
2023/06/12 03:29:53;;;;;;;7.97;4.95;;;;;;;19.31;60.97;101471.41;10393476;28;20118;-70
2023/06/12 03:34:54;;;;;;;7.25;5.68;;;;;;;19.32;60.54;101481.31;10378086;28;20394;-71
2023/06/12 03:39:55;;;;;;;6.95;5.82;;;;;;;19.30;60.81;101483.47;10393239;28;20057;-70
2023/06/12 03:44:55;;;;;;;8.38;5.18;;;;;;;19.28;58.87;101486.47;10376525;28;20096;-72
2023/06/12 03:49:55;;;;;;;5.80;5.22;;;;;;;19.21;59.13;101496.75;10378384;28;20030;-71
2023/06/12 03:54:56;;;;;;;7.25;5.50;;;;;;;19.17;58.53;101501.03;10377256;28;20034;-70
2023/06/12 03:59:56;;;;;;;10.52;5.30;;;;;;;19.14;57.72;101504.25;10375576;28;20037;-73
2023/06/12 04:04:57;;;;;;;5.13;4.53;;;;;;;19.15;59.09;101510.59;10392644;28;20124;-71
2023/06/12 04:09:57;;;;;;;11.80;6.05;;;;;;;19.14;61.62;101509.75;10376301;28;20030;-72
2023/06/12 04:14:57;;;;;;;6.70;4.93;;;;;;;19.19;60.98;101511.78;10376861;28;20065;-70
2023/06/12 04:19:58;;;;;;;6.45;5.47;;;;;;;19.22;60.48;101517.63;10383865;28;20064;-71
2023/06/12 04:25:01;;;;;;;8.60;5.65;;;;;;;19.22;61.32;101514.88;10384958;28;20512;-71
2023/06/12 04:30:02;;;;;;;11.57;5.68;;;;;;;19.29;60.51;101518.31;10359367;28;20053;-71
2023/06/12 04:35:05;;;;;;;6.70;5.63;;;;;;;19.42;60.13;101514.50;10375240;28;20377;-70
2023/06/12 04:40:06;;;;;;;8.38;5.47;;;;;;;19.90;59.09;101515.22;10358125;28;20065;-70
2023/06/12 04:45:08;;;;;;;7.20;4.88;;;;;;;20.01;58.79;101510.78;10375891;28;20041;-70
2023/06/12 04:50:09;;;;;;;6.72;5.88;;;;;;;20.57;57.63;101511.81;10376427;28;20041;-69
2023/06/12 04:55:09;;;;;;;7.22;5.85;;;;;;;20.86;56.45;101509.81;10375701;28;20462;-72
2023/06/12 05:00:14;;;;;;;11.32;6.32;;;;;;;21.66;54.88;101519.50;10374339;28;20104;-71
2023/06/12 05:05:14;;;;;;;6.90;5.00;;;;;;;22.28;52.72;101519.13;10373687;28;20072;-69
2023/06/12 05:10:15;;;;;;;5.75;5.15;;;;;;;22.71;50.50;101510.94;10357044;28;20151;-70
2023/06/12 05:15:15;;;;;;;6.28;5.55;;;;;;;23.04;48.99;101517.28;10356887;28;20131;-71
2023/06/12 05:20:16;;;;;;;8.52;6.13;;;;;;;23.38;47.88;101521.38;10372811;28;20092;-72
2023/06/12 05:25:16;;;;;;;5.68;4.95;;;;;;;23.69;46.95;101518.78;10372175;28;20034;-71
2023/06/12 05:30:17;;;;;;;5.95;5.20;;;;;;;23.86;45.89;101508.31;10373533;28;20443;-72
2023/06/12 05:35:17;;;;;;;7.38;6.35;;;;;;;24.42;45.39;101517.91;10372771;28;20049;-70
2023/06/12 05:40:18;;;;;;;4.78;4.38;;;;;;;24.88;44.55;101521.47;10374904;28;20060;-70
2023/06/12 05:45:18;;;;;;;6.93;4.82;;;;;;;25.23;43.42;101515.06;10355801;28;20076;-71
2023/06/12 05:50:19;;;;;;;15.60;5.90;;;;;;;25.65;42.92;101518.53;10371159;28;20121;-70
2023/06/12 05:55:19;;;;;;;10.65;6.43;;;;;;;25.94;43.26;101521.47;10389174;28;20372;-71
2023/06/12 06:00:21;;;;;;;15.20;5.85;;;;;;;26.52;42.32;101512.53;10388421;28;20046;-70
2023/06/12 06:05:22;;;;;;;6.68;4.70;;;;;;;26.90;41.14;101521.94;10371923;28;20050;-69
2023/06/12 06:10:23;;;;;;;9.57;4.95;;;;;;;27.02;39.91;101525.13;10372521;28;20095;-71
2023/06/12 06:15:23;;;;;;;13.50;5.28;;;;;;;27.41;39.35;101529.75;10370850;28;20034;-70
2023/06/12 06:20:24;;;;;;;17.05;4.45;;;;;;;28.01;38.53;101530.09;10371309;28;20087;-70
2023/06/12 06:25:24;;;;;;;5.13;4.38;;;;;;;28.25;37.52;101532.00;10372180;28;20136;-70
2023/06/12 06:30:25;;;;;;;5.78;5.28;;;;;;;28.56;37.08;101540.75;10371522;28;20053;-69
2023/06/12 06:35:25;;;;;;;4.38;4.07;;;;;;;28.64;36.90;101531.69;10371428;28;20034;-70
2023/06/12 06:40:26;;;;;;;4.70;4.30;;;;;;;28.76;36.21;101541.56;10371220;28;20065;-70
2023/06/12 06:45:26;;;;;;;5.40;4.53;;;;;;;28.69;35.85;101544.72;10370970;28;20537;-70
2023/06/12 06:50:27;;;;;;;4.65;4.25;;;;;;;28.82;35.76;101527.22;10353302;28;20030;-70
2023/06/12 06:55:27;;;;;;;8.75;4.90;;;;;;;29.45;34.39;101531.34;10370453;28;20041;-72
2023/06/12 07:00:28;;;;;;;4.63;4.22;;;;;;;29.55;34.63;101538.72;10370847;28;20069;-70
2023/06/12 07:05:28;;;;;;;8.43;5.40;;;;;;;29.85;33.69;101546.44;10369860;28;20565;-70
2023/06/12 07:10:28;;;;;;;9.10;5.25;;;;;;;29.95;33.26;101537.03;10371037;28;20037;-71
2023/06/12 07:15:29;;;;;;;10.20;4.63;;;;;;;30.42;33.06;101534.03;10386306;28;20111;-72
2023/06/12 07:20:29;;;;;;;5.40;4.72;;;;;;;30.59;32.98;101540.56;10369757;28;20030;-70
2023/06/12 07:25:30;;;;;;;6.15;5.63;;;;;;;31.14;33.07;101535.81;10371521;28;20087;-70
2023/06/12 07:30:30;;;;;;;7.28;5.60;;;;;;;31.66;31.77;101533.28;10371057;28;20145;-72
2023/06/12 07:35:31;;;;;;;5.53;4.80;;;;;;;31.68;31.54;101534.56;10371941;28;20038;-69
2023/06/12 07:40:31;;;;;;;5.13;4.72;;;;;;;31.58;30.05;101534.88;10372039;28;20049;-70
2023/06/12 07:45:32;;;;;;;5.13;4.78;;;;;;;32.14;30.81;101536.00;10369707;28;20116;-71
2023/06/12 07:50:32;;;;;;;6.93;5.78;;;;;;;32.28;30.36;101532.22;10376374;28;20078;-71
2023/06/12 07:55:33;;;;;;;5.38;4.93;;;;;;;32.49;30.92;101536.03;10377398;28;20077;-71
2023/06/12 08:00:35;;;;;;;5.75;5.22;;;;;;;32.70;29.48;101532.53;10376172;28;20076;-71
2023/06/12 08:05:36;;;;;;;13.35;5.32;;;;;;;32.70;28.45;101533.38;10376996;28;20030;-72
2023/06/12 08:10:36;;;;;;;5.35;4.75;;;;;;;32.74;28.16;101528.75;10377347;28;20037;-71
2023/06/12 08:15:37;;;;;;;6.55;4.93;;;;;;;32.82;27.55;101535.50;10377329;28;20436;-70
2023/06/12 08:20:37;;;;;;;6.00;5.05;;;;;;;32.79;27.54;101524.94;10359781;28;20041;-71
2023/06/12 08:25:38;;;;;;;4.13;3.80;;;;;;;32.88;27.61;101539.78;10376032;28;20138;-70
2023/06/12 08:30:38;;;;;;;7.35;4.35;;;;;;;32.73;27.01;101531.88;10376147;28;20085;-71
2023/06/12 08:35:39;;;;;;;5.88;5.15;;;;;;;32.99;27.06;101529.03;10376595;28;20096;-71
2023/06/12 08:40:39;;;;;;;8.07;6.35;;;;;;;33.68;26.31;101523.16;10374501;28;20084;-71
2023/06/12 08:45:45;;;;;;;10.50;5.82;;;;;;;33.84;25.24;101529.00;10375193;28;20048;-71
2023/06/12 08:50:45;;;;;;;;;;;;;;;34.01;25.27;101519.59;10374799;28;20480;-71
2023/06/12 08:55:46;;;;;;;4.17;3.87;;;;;;;33.80;24.40;101508.38;10375653;28;19923;-72
2023/06/12 09:00:46;;;;;;;7.68;4.75;;;;;;;33.56;23.30;101500.56;10373841;28;20025;-70
2023/06/12 09:05:47;;;;;;;9.18;4.53;;;;;;;33.70;24.02;101514.38;10373857;28;20041;-71
2023/06/12 09:10:47;;;;;;;7.68;5.28;;;;;;;33.99;24.43;101505.09;10373878;28;20429;-72
2023/06/12 09:15:52;;;;;;;4.47;4.10;;;;;;;34.37;23.94;101501.34;10374937;28;20476;-70
2023/06/12 09:20:52;;;;;;;14.15;4.68;;;;;;;33.90;23.38;101507.13;10373525;28;20116;-72
2023/06/12 09:25:55;;;;;;;5.00;4.60;;;;;;;33.58;23.71;101497.44;10372884;28;20069;-71
2023/06/12 09:30:55;;;;;;;5.32;4.82;;;;;;;33.68;23.88;101497.88;10373076;28;20462;-72
2023/06/12 09:35:56;;;;;;;5.13;4.68;;;;;;;33.74;24.17;101499.31;10374682;28;20030;-71
2023/06/12 09:40:57;;;;;;;4.65;4.35;;;;;;;34.07;24.77;101500.59;10374159;28;20156;-71
2023/06/12 09:45:58;;;;;;;4.55;4.25;;;;;;;34.28;23.91;101483.72;10374702;28;20092;-70
2023/06/12 09:51:03;;;;;;;5.43;4.53;;;;;;;34.19;22.92;101509.09;10355901;28;20038;-72
2023/06/12 09:56:07;;;;;;;5.03;4.63;;;;;;;33.99;22.61;101524.75;10374150;28;20034;-71
2023/06/12 10:01:08;;;;;;;12.75;4.50;;;;;;;34.04;21.13;101510.53;10373288;28;20034;-72
2023/06/12 10:06:10;;;;;;;6.70;4.75;;;;;;;33.89;22.02;101500.69;10356487;28;20459;-72
2023/06/12 10:11:12;;;;;;;4.43;3.97;;;;;;;34.03;21.34;101509.69;10372073;28;20390;-71
2023/06/12 10:16:13;;;;;;;5.00;4.63;;;;;;;34.04;20.76;101502.09;10372088;28;20037;-71
2023/06/12 10:21:13;;;;;;;4.88;4.35;;;;;;;34.15;20.02;101494.09;10372649;28;20044;-71
2023/06/12 10:26:14;;;;;;;4.68;4.28;;;;;;;34.18;20.98;101490.59;10355367;28;20442;-73
2023/06/12 10:31:16;;;;;;;5.53;4.40;;;;;;;34.91;20.41;101496.47;10371870;28;20071;-71
2023/06/12 10:36:17;;;;;;;5.25;4.70;;;;;;;34.85;20.51;101495.06;10373233;28;20116;-72
2023/06/12 10:41:33;;;;;;;4.45;4.10;;;;;;;34.72;20.09;101494.22;10371464;28;20092;-75
2023/06/12 10:46:43;;;;;;;4.22;3.92;;;;;;;34.49;20.56;101473.22;10371901;28;20446;-72
2023/06/12 10:51:50;;;;;;;4.60;4.30;;;;;;;34.44;20.55;101477.09;10354961;28;20113;-75
2023/06/12 10:57:00;;;;;;;3.95;3.65;;;;;;;34.35;19.65;101473.53;10354928;28;20044;-71
2023/06/12 11:02:03;;;;;;;12.98;4.30;;;;;;;34.61;20.38;101475.31;10373337;28;20113;-72
2023/06/12 11:07:04;;;;;;;3.75;3.42;;;;;;;34.97;19.53;101473.72;10370247;28;20033;-72
2023/06/12 11:12:05;;;;;;;4.07;3.67;;;;;;;35.01;20.38;101466.25;10371479;28;20034;-71
2023/06/12 11:17:06;;;;;;;5.10;4.38;;;;;;;35.35;19.03;101464.97;10371012;28;20056;-71
2023/06/12 11:22:06;;;;;;;3.95;3.72;;;;;;;35.19;18.33;101467.66;10372372;28;20063;-70
2023/06/12 11:27:07;;;;;;;4.13;3.72;;;;;;;35.46;18.27;101465.31;10380658;28;20030;-71
2023/06/12 11:32:09;;;;;;;3.78;3.50;;;;;;;35.47;19.70;101444.44;10361337;28;20058;-71
2023/06/12 11:37:17;;;;;;;6.82;4.10;;;;;;;35.11;19.72;101463.00;10379622;28;20354;-73
2023/06/12 11:42:17;;;;;;;4.55;4.22;;;;;;;34.99;20.29;101451.69;10377355;28;20037;-71
2023/06/12 11:47:18;;;;;;;4.35;3.63;;;;;;;35.59;20.14;101447.25;10377064;28;20433;-71
2023/06/12 11:52:20;;;;;;;6.95;5.13;;;;;;;35.46;19.17;101439.97;10376013;28;20038;-71
2023/06/12 11:57:28;;;;;;;4.43;4.00;;;;;;;34.93;18.76;101440.66;10376633;28;20057;-71
2023/06/12 12:02:31;;;;;;;4.35;3.97;;;;;;;35.02;19.35;101445.34;10345691;28;20029;-71
2023/06/12 12:07:32;;;;;;;13.13;4.55;;;;;;;34.85;19.42;101432.34;10377950;28;20374;-71
2023/06/12 12:12:43;;;;;;;5.07;4.50;;;;;;;35.30;20.11;101428.63;10360666;28;20041;-71
2023/06/12 12:17:43;;;;;;;5.20;4.80;;;;;;;36.09;19.88;101432.69;10375902;28;20061;-72
2023/06/12 12:22:48;;;;;;;4.18;3.78;;;;;;;35.85;20.66;101435.56;10359384;28;20068;-72
2023/06/12 12:27:50;;;;;;;4.75;4.38;;;;;;;36.14;19.57;101423.13;10375469;28;20481;-71
2023/06/12 12:32:55;;;;;;;8.27;4.40;;;;;;;35.36;19.67;101430.84;10375093;28;20100;-72
2023/06/12 12:37:56;;;;;;;4.30;4.00;;;;;;;35.37;19.68;101428.84;10376625;28;20113;-73
2023/06/12 12:42:56;;;;;;;12.88;4.85;;;;;;;35.73;19.75;101425.13;10392412;28;20092;-71
2023/06/12 12:47:57;;;;;;;4.28;3.97;;;;;;;36.00;20.48;101417.91;10375525;28;20053;-71
2023/06/12 12:52:57;;;;;;;8.80;5.45;;;;;;;35.50;19.20;101410.72;10376927;28;20113;-72
2023/06/12 12:57:58;;;;;;;4.05;3.78;;;;;;;35.10;20.38;101407.84;10377547;28;20065;-73
2023/06/12 13:02:58;;;;;;;4.75;4.35;;;;;;;35.63;19.31;101414.38;10376208;28;20087;-71
2023/06/12 13:07:59;;;;;;;4.75;4.35;;;;;;;35.77;20.68;101403.53;10375514;28;20049;-70
2023/06/12 13:12:59;;;;;;;4.82;4.40;;;;;;;36.04;20.75;101406.75;10375937;28;20049;-73
2023/06/12 13:18:00;;;;;;;5.15;4.72;;;;;;;35.65;20.54;101403.56;10375627;28;20505;-72
2023/06/12 13:23:00;;;;;;;5.65;4.20;;;;;;;35.03;21.86;101400.00;10358900;28;20033;-71
2023/06/12 13:28:01;;;;;;;5.78;5.30;;;;;;;35.71;21.83;101393.69;10375990;28;20033;-71
2023/06/12 13:33:01;;;;;;;12.25;4.65;;;;;;;35.47;21.71;101396.53;10375255;28;20062;-72
2023/06/12 13:38:01;;;;;;;12.27;6.30;;;;;;;35.40;21.55;101395.16;10373044;28;20053;-71
2023/06/12 13:43:02;;;;;;;4.47;4.18;;;;;;;34.68;21.19;101391.16;10374599;28;20362;-72
2023/06/12 13:48:03;;;;;;;8.05;4.93;;;;;;;34.42;22.38;101371.75;10372355;28;20108;-73
2023/06/12 13:53:03;;;;;;;5.43;4.93;;;;;;;34.10;23.60;101376.22;10391077;28;20132;-71
2023/06/12 13:58:07;;;;;;;7.55;4.53;;;;;;;34.18;22.96;101376.16;10374625;28;20045;-71
2023/06/12 14:03:07;;;;;;;6.57;5.18;;;;;;;33.82;22.54;101371.16;10356282;28;20083;-73
2023/06/12 14:08:08;;;;;;;9.70;4.78;;;;;;;33.90;23.50;101375.91;10373793;28;20149;-71
2023/06/12 14:13:09;;;;;;;6.65;4.47;;;;;;;33.69;23.18;101367.47;10371743;28;20053;-72
2023/06/12 14:18:10;;;;;;;4.72;4.07;;;;;;;34.07;23.03;101369.31;10371287;28;20065;-72
2023/06/12 14:23:10;;;;;;;4.97;4.50;;;;;;;34.61;23.07;101369.22;10387481;28;20405;-71
2023/06/12 14:28:10;;;;;;;4.93;4.53;;;;;;;34.54;22.82;101365.38;10372914;28;20165;-71
2023/06/12 14:33:11;;;;;;;9.47;5.80;;;;;;;34.24;23.42;101351.47;10373740;28;20081;-72
2023/06/12 14:38:11;;;;;;;4.95;4.43;;;;;;;34.10;23.98;101348.94;10372191;28;20289;-71
2023/06/12 14:43:12;;;;;;;5.70;5.13;;;;;;;34.30;23.79;101343.59;10370687;28;20072;-71
2023/06/12 14:48:12;;;;;;;5.57;4.75;;;;;;;33.67;22.95;101346.53;10370749;28;20119;-72
2023/06/12 14:53:13;;;;;;;5.32;4.85;;;;;;;33.50;23.52;101341.88;10370762;28;20156;-72
2023/06/12 14:58:13;;;;;;;5.05;4.55;;;;;;;33.40;23.19;101343.06;10375838;28;20446;-71
2023/06/12 15:03:14;;;;;;;6.38;4.75;;;;;;;33.31;23.41;101333.91;10395027;28;20038;-72
2023/06/12 15:08:14;;;;;;;5.22;4.72;;;;;;;33.47;23.39;101343.38;10378625;28;20037;-72
2023/06/12 15:13:15;;;;;;;4.65;4.25;;;;;;;33.15;23.56;101330.88;10379167;28;20037;-73
2023/06/12 15:18:15;;;;;;;4.63;4.32;;;;;;;33.17;23.62;101328.56;10364264;28;20037;-72
2023/06/12 15:23:15;;;;;;;5.00;4.60;;;;;;;32.88;23.65;101338.59;10381765;28;20061;-71
2023/06/12 15:28:16;;;;;;;5.00;4.60;;;;;;;32.98;24.00;101320.59;10378196;28;20540;-72
2023/06/12 15:33:16;;;;;;;7.47;5.17;;;;;;;33.03;24.00;101317.59;10377395;28;20062;-71
2023/06/12 15:38:36;;;;;;;7.20;4.57;;;;;;;32.58;24.26;101318.16;10378243;28;20394;-71
2023/06/12 15:43:37;;;;;;;10.68;4.57;;;;;;;32.61;24.01;101342.72;10377961;28;20045;-72
2023/06/12 15:48:40;;;;;;;4.20;4.00;;;;;;;32.63;24.00;101325.53;10377509;28;20045;-71
2023/06/12 15:53:41;;;;;;;9.68;6.68;;;;;;;32.18;24.26;101326.81;10361404;28;20053;-72
2023/06/12 15:58:43;;;;;;;5.88;5.35;;;;;;;32.13;24.26;101320.56;10377847;28;20089;-72
2023/06/12 16:03:44;;;;;;;4.38;4.07;;;;;;;32.04;24.47;101311.41;10381452;28;20080;-71
2023/06/12 16:08:45;;;;;;;5.85;5.35;;;;;;;31.70;24.28;101308.28;10391388;28;20061;-72
2023/06/12 16:13:46;;;;;;;5.20;4.78;;;;;;;31.59;24.77;101304.19;10393875;28;20053;-71
2023/06/12 16:18:46;;;;;;;4.38;3.97;;;;;;;31.72;25.21;101300.38;10393576;28;20030;-71
2023/06/12 16:23:47;;;;;;;6.57;4.72;;;;;;;31.24;25.69;101298.53;10378514;28;20037;-72
2023/06/12 16:28:48;;;;;;;5.35;4.95;;;;;;;30.30;26.22;101292.31;10375334;28;20056;-71
2023/06/12 16:33:48;;;;;;;7.10;5.28;;;;;;;30.16;26.64;101294.38;10376751;28;20330;-70
2023/06/12 16:38:49;;;;;;;5.10;4.20;;;;;;;29.74;26.96;101282.63;10376804;28;20061;-71
2023/06/12 16:43:49;;;;;;;6.20;4.32;;;;;;;29.41;27.23;101284.78;10375851;28;20048;-71
2023/06/12 16:48:51;;;;;;;9.75;5.55;;;;;;;29.41;27.15;101287.56;10392624;28;20458;-71
2023/06/12 16:53:52;;;;;;;6.93;5.82;;;;;;;29.25;27.84;101275.94;10375691;28;20116;-70
2023/06/12 16:58:52;;;;;;;6.15;4.85;;;;;;;29.02;27.90;101268.69;10373591;28;20041;-72
2023/06/12 17:03:53;;;;;;;15.13;5.63;;;;;;;28.84;28.71;101271.25;10375076;28;20180;-71
2023/06/12 17:08:53;;;;;;;6.82;5.35;;;;;;;28.92;29.14;101264.97;10374467;28;20132;-71
2023/06/12 17:13:56;;;;;;;5.40;4.00;;;;;;;28.80;30.37;101266.63;10375509;28;20042;-71
2023/06/12 17:18:57;;;;;;;8.00;5.22;;;;;;;28.67;30.83;101265.50;10374298;28;20034;-70
2023/06/12 17:23:57;;;;;;;4.50;4.10;;;;;;;28.59;30.76;101266.22;10373591;28;20060;-70
2023/06/12 17:29:01;;;;;;;7.68;4.20;;;;;;;28.43;31.38;101266.56;10375204;28;20334;-72
2023/06/12 17:34:02;;;;;;;7.15;3.45;;;;;;;28.28;31.62;101261.25;10379801;28;20037;-70
2023/06/12 17:39:02;;;;;;;10.27;4.57;;;;;;;28.17;32.58;101259.78;10374458;28;20030;-71
2023/06/12 17:44:03;;;;;;;3.92;3.63;;;;;;;28.00;32.98;101257.59;10372652;28;20029;-71
2023/06/12 17:49:04;;;;;;;4.95;4.05;;;;;;;27.82;33.10;101256.50;10374807;28;20053;-71
2023/06/12 17:54:04;;;;;;;4.40;4.00;;;;;;;27.68;33.56;101256.44;10373199;28;20504;-71
2023/06/12 17:59:05;;;;;;;4.28;3.97;;;;;;;27.57;33.79;101258.59;10373111;28;20061;-72
2023/06/12 18:04:05;;;;;;;6.35;4.43;;;;;;;27.46;33.81;101257.09;10373864;28;20144;-70
2023/06/12 18:09:06;;;;;;;6.07;3.88;;;;;;;27.26;34.10;101263.81;10374640;28;20254;-71
2023/06/12 18:14:06;;;;;;;7.05;4.03;;;;;;;27.17;33.41;101260.03;10371943;28;20441;-70
2023/06/12 18:19:07;;;;;;;5.82;4.10;;;;;;;27.07;34.25;101252.66;10374290;28;20034;-71
2023/06/12 18:24:07;;;;;;;4.32;3.92;;;;;;;26.98;34.79;101271.13;10372375;28;20474;-70
2023/06/12 18:29:11;;;;;;;9.60;4.80;;;;;;;26.90;34.87;101257.91;10354848;28;20045;-70
2023/06/12 18:34:12;;;;;;;4.45;4.00;;;;;;;26.92;35.39;101265.94;10372130;28;20053;-71
2023/06/12 18:39:12;;;;;;;7.57;4.63;;;;;;;26.82;37.89;101272.47;10387446;28;20120;-70
2023/06/12 18:44:14;;;;;;;6.60;4.88;;;;;;;26.72;39.34;101272.59;10373714;28;20045;-77
2023/06/12 18:49:15;;;;;;;12.07;4.40;;;;;;;26.58;38.95;101280.78;10375056;28;20072;-76
2023/06/12 18:54:16;;;;;;;5.28;4.35;;;;;;;26.47;38.13;101273.69;10373008;28;20412;-74
2023/06/12 18:59:18;;;;;;;3.80;3.38;;;;;;;26.15;39.81;101278.75;10372829;28;20537;-78
2023/06/12 19:04:18;;;;;;;7.78;4.65;;;;;;;26.07;39.79;101292.41;10383814;28;20042;-76
2023/06/12 19:09:19;;;;;;;6.15;4.88;;;;;;;25.93;39.16;101297.84;10373531;28;20478;-74
2023/06/12 19:14:19;;;;;;;12.98;3.25;;;;;;;25.82;39.03;101301.81;10371771;28;20081;-78
2023/06/12 19:19:20;;;;;;;3.60;3.30;;;;;;;25.60;40.61;101302.25;10340667;28;20034;-75
2023/06/12 19:24:20;;;;;;;4.13;3.75;;;;;;;25.49;40.48;101298.69;10362753;28;20385;-77
2023/06/12 19:29:21;;;;;;;4.93;4.28;;;;;;;25.38;41.18;101308.22;10378125;28;20132;-76
2023/06/12 19:34:21;;;;;;;5.65;4.82;;;;;;;25.26;41.20;101300.25;10374748;28;20106;-76
2023/06/12 19:39:23;;;;;;;10.13;4.65;;;;;;;25.12;41.66;101302.81;10373914;28;20034;-76
2023/06/12 19:44:24;;;;;;;4.13;3.78;;;;;;;24.99;42.99;101308.97;10377844;28;20034;-77
2023/06/12 19:49:24;;;;;;;8.65;4.18;;;;;;;24.86;41.88;101310.41;10379180;28;20091;-76
2023/06/12 19:54:25;;;;;;;5.10;4.60;;;;;;;24.70;42.22;101306.88;10378539;28;20370;-74
2023/06/12 19:59:25;;;;;;;4.38;4.07;;;;;;;24.59;44.05;101313.53;10361645;28;20088;-75
2023/06/12 20:04:25;;;;;;;7.53;3.83;;;;;;;24.48;42.14;101312.75;10377821;28;20042;-76
2023/06/12 20:09:26;;;;;;;3.92;3.63;;;;;;;24.31;42.85;101313.03;10382383;28;20045;-74
2023/06/12 20:14:26;;;;;;;5.97;4.07;;;;;;;24.08;46.59;101311.66;10380829;28;20498;-75
2023/06/12 20:19:27;;;;;;;5.18;4.57;;;;;;;23.90;45.52;101307.53;10381163;28;20081;-74
2023/06/12 20:24:33;;;;;;;6.18;4.88;;;;;;;23.74;45.67;101316.09;10380718;28;20034;-76
2023/06/12 20:29:43;;;;;;;7.35;4.88;;;;;;;23.55;46.57;101322.16;10380908;28;20089;-78
2023/06/12 20:34:44;;;;;;;9.50;5.35;;;;;;;23.33;47.66;101321.56;10390486;28;20465;-76
2023/06/12 20:39:44;;;;;;;9.15;5.57;;;;;;;23.18;48.03;101325.09;10377375;28;20030;-78
2023/06/12 20:44:45;;;;;;;5.25;4.03;;;;;;;23.04;48.04;101323.91;10376120;28;20474;-77
2023/06/12 20:49:45;;;;;;;10.50;4.40;;;;;;;22.95;46.91;101329.97;10378845;28;20030;-76
2023/06/12 20:54:46;;;;;;;11.82;5.03;;;;;;;22.80;49.58;101340.09;10377830;28;20406;-76
2023/06/12 20:59:47;;;;;;;6.05;5.45;;;;;;;22.68;47.59;101341.13;10375264;28;20137;-76
2023/06/12 21:04:47;;;;;;;5.90;4.75;;;;;;;22.61;48.54;101343.31;10376627;28;20061;-76
2023/06/12 21:09:48;;;;;;;12.18;5.93;;;;;;;22.52;47.68;101337.44;10376420;28;20041;-75
2023/06/12 21:14:48;;;;;;;17.73;6.15;;;;;;;22.45;47.18;101342.38;10376778;28;20038;-75
2023/06/12 21:19:48;;;;;;;5.22;4.57;;;;;;;22.34;46.76;101346.19;10375987;28;20045;-75
2023/06/12 21:24:49;;;;;;;5.82;5.18;;;;;;;22.26;48.78;101338.38;10374895;28;20049;-71
2023/06/12 21:29:49;;;;;;;7.15;5.35;;;;;;;22.21;49.39;101341.13;10372110;28;20062;-69
2023/06/12 21:34:50;;;;;;;7.20;6.10;;;;;;;22.13;49.69;101338.81;10372396;28;20117;-69
2023/06/12 21:39:50;;;;;;;8.48;5.50;;;;;;;22.01;50.10;101331.53;10372963;28;20041;-70
2023/06/12 21:44:51;;;;;;;12.18;6.10;;;;;;;21.94;52.03;101338.38;10373669;28;20041;-71
2023/06/12 21:49:51;;;;;;;11.88;6.25;;;;;;;21.95;54.01;101340.91;10373346;28;20370;-70
2023/06/12 21:54:52;;;;;;;14.63;6.57;;;;;;;21.94;54.88;101346.66;10388801;28;20048;-70
2023/06/12 21:59:52;;;;;;;15.23;6.50;;;;;;;21.94;58.85;101350.25;10372490;28;20120;-72
2023/06/12 22:04:52;;;;;;;10.23;7.10;;;;;;;22.01;56.94;101353.59;10378276;28;20038;-71
2023/06/12 22:09:53;;;;;;;18.73;7.65;;;;;;;21.94;57.93;101350.25;10374571;28;20041;-70
2023/06/12 22:14:53;;;;;;;5.70;5.20;;;;;;;21.82;57.88;101350.44;10373150;28;20127;-70
2023/06/12 22:19:56;;;;;;;21.13;7.13;;;;;;;21.75;63.48;101344.28;10373821;28;20034;-71
2023/06/12 22:24:56;;;;;;;10.05;7.93;;;;;;;21.74;65.11;101355.59;10374079;28;20532;-70
2023/06/12 22:29:57;;;;;;;14.07;6.63;;;;;;;21.68;66.12;101353.88;10392952;28;20084;-71
2023/06/12 22:34:57;;;;;;;7.13;6.43;;;;;;;21.63;66.40;101345.53;10373391;28;20064;-71
2023/06/12 22:39:58;;;;;;;14.27;7.20;;;;;;;21.55;66.25;101349.59;10355291;28;20477;-70
2023/06/12 22:44:58;;;;;;;11.07;6.18;;;;;;;21.50;64.01;101346.78;10372553;28;20030;-70
2023/06/12 22:50:00;;;;;;;5.70;5.20;;;;;;;21.50;62.93;101360.56;10370874;28;20052;-72
2023/06/12 22:55:01;;;;;;;8.98;6.05;;;;;;;21.45;60.98;101366.03;10372518;28;20082;-71
2023/06/12 23:00:03;;;;;;;6.72;6.13;;;;;;;21.45;56.22;101358.59;10372819;28;20362;-70
2023/06/12 23:05:05;;;;;;;6.88;5.93;;;;;;;21.54;53.77;101354.28;10357776;28;20038;-73